sensor_id;sensor_type;location;lat;lon;timestamp;P1;durP1;ratioP1;P2;durP2;ratioP2
3487;SDS011;38546;48.170;11.724;2023-11-21T00:00:29;3.10;;;2.80;;
3487;SDS011;38546;48.170;11.724;2023-11-21T00:03:18;3.97;;;1.73;;
3487;SDS011;38546;48.170;11.724;2023-11-21T00:06:07;9.30;;;2.50;;
3487;SDS011;38546;48.170;11.724;2023-11-21T00:08:57;6.40;;;2.47;;
3487;SDS011;38546;48.170;11.724;2023-11-21T00:11:46;7.10;;;2.93;;
3487;SDS011;38546;48.170;11.724;2023-11-21T00:14:36;5.73;;;2.60;;
3487;SDS011;38546;48.170;11.724;2023-11-21T00:17:26;4.27;;;2.30;;
3487;SDS011;38546;48.170;11.724;2023-11-21T00:20:16;4.93;;;2.57;;
3487;SDS011;38546;48.170;11.724;2023-11-21T00:23:06;6.90;;;2.60;;
3487;SDS011;38546;48.170;11.724;2023-11-21T00:25:55;7.00;;;2.40;;
3487;SDS011;38546;48.170;11.724;2023-11-21T00:28:45;3.30;;;2.27;;
3487;SDS011;38546;48.170;11.724;2023-11-21T00:31:34;7.00;;;1.80;;
3487;SDS011;38546;48.170;11.724;2023-11-21T00:34:28;5.70;;;2.10;;
3487;SDS011;38546;48.170;11.724;2023-11-21T00:37:17;3.57;;;1.87;;
3487;SDS011;38546;48.170;11.724;2023-11-21T00:40:06;4.60;;;1.53;;
3487;SDS011;38546;48.170;11.724;2023-11-21T00:42:58;5.03;;;1.73;;
3487;SDS011;38546;48.170;11.724;2023-11-21T00:45:47;3.30;;;1.43;;
3487;SDS011;38546;48.170;11.724;2023-11-21T00:48:37;4.23;;;1.53;;
3487;SDS011;38546;48.170;11.724;2023-11-21T00:51:26;6.53;;;1.50;;
3487;SDS011;38546;48.170;11.724;2023-11-21T00:54:16;2.20;;;1.40;;
3487;SDS011;38546;48.170;11.724;2023-11-21T00:57:06;2.57;;;1.50;;
3487;SDS011;38546;48.170;11.724;2023-11-21T00:59:57;3.40;;;1.37;;
3487;SDS011;38546;48.170;11.724;2023-11-21T01:02:47;1.30;;;1.30;;
3487;SDS011;38546;48.170;11.724;2023-11-21T01:05:37;5.97;;;1.80;;
3487;SDS011;38546;48.170;11.724;2023-11-21T01:08:26;2.60;;;1.50;;
3487;SDS011;38546;48.170;11.724;2023-11-21T01:11:15;1.27;;;1.17;;
3487;SDS011;38546;48.170;11.724;2023-11-21T01:14:05;4.63;;;1.17;;
3487;SDS011;38546;48.170;11.724;2023-11-21T01:16:55;1.90;;;1.70;;
3487;SDS011;38546;48.170;11.724;2023-11-21T01:19:44;2.53;;;0.90;;
3487;SDS011;38546;48.170;11.724;2023-11-21T01:22:33;1.40;;;1.40;;
3487;SDS011;38546;48.170;11.724;2023-11-21T01:25:22;5.33;;;1.87;;
3487;SDS011;38546;48.170;11.724;2023-11-21T01:28:11;4.20;;;1.40;;
3487;SDS011;38546;48.170;11.724;2023-11-21T01:31:01;2.40;;;1.40;;
3487;SDS011;38546;48.170;11.724;2023-11-21T01:33:50;4.80;;;1.70;;
3487;SDS011;38546;48.170;11.724;2023-11-21T01:36:39;1.97;;;1.27;;
3487;SDS011;38546;48.170;11.724;2023-11-21T01:39:28;4.33;;;1.83;;
3487;SDS011;38546;48.170;11.724;2023-11-21T01:42:17;3.40;;;1.73;;
3487;SDS011;38546;48.170;11.724;2023-11-21T01:45:07;3.90;;;1.83;;
3487;SDS011;38546;48.170;11.724;2023-11-21T01:47:58;3.10;;;1.43;;
3487;SDS011;38546;48.170;11.724;2023-11-21T01:50:49;1.77;;;1.67;;
3487;SDS011;38546;48.170;11.724;2023-11-21T01:53:39;2.30;;;1.70;;
3487;SDS011;38546;48.170;11.724;2023-11-21T01:56:29;1.70;;;1.60;;
3487;SDS011;38546;48.170;11.724;2023-11-21T01:59:21;2.93;;;1.87;;
3487;SDS011;38546;48.170;11.724;2023-11-21T02:02:11;3.10;;;1.93;;
3487;SDS011;38546;48.170;11.724;2023-11-21T02:05:01;3.90;;;2.10;;
3487;SDS011;38546;48.170;11.724;2023-11-21T02:07:50;4.73;;;2.00;;
3487;SDS011;38546;48.170;11.724;2023-11-21T02:10:41;1.77;;;1.63;;
3487;SDS011;38546;48.170;11.724;2023-11-21T02:13:30;4.70;;;2.00;;
3487;SDS011;38546;48.170;11.724;2023-11-21T02:16:20;6.90;;;2.20;;
3487;SDS011;38546;48.170;11.724;2023-11-21T02:19:10;7.10;;;1.80;;
3487;SDS011;38546;48.170;11.724;2023-11-21T02:22:08;10.13;;;2.47;;
3487;SDS011;38546;48.170;11.724;2023-11-21T02:24:59;5.80;;;2.50;;
3487;SDS011;38546;48.170;11.724;2023-11-21T02:27:49;4.30;;;2.40;;
3487;SDS011;38546;48.170;11.724;2023-11-21T02:30:40;8.03;;;2.50;;
3487;SDS011;38546;48.170;11.724;2023-11-21T02:33:29;4.70;;;1.87;;
3487;SDS011;38546;48.170;11.724;2023-11-21T02:36:22;2.10;;;2.00;;
3487;SDS011;38546;48.170;11.724;2023-11-21T02:39:12;9.63;;;2.57;;
3487;SDS011;38546;48.170;11.724;2023-11-21T02:42:02;1.67;;;1.57;;
3487;SDS011;38546;48.170;11.724;2023-11-21T02:44:53;13.93;;;1.90;;
3487;SDS011;38546;48.170;11.724;2023-11-21T02:47:42;3.27;;;2.33;;
3487;SDS011;38546;48.170;11.724;2023-11-21T02:50:32;1.93;;;1.73;;
3487;SDS011;38546;48.170;11.724;2023-11-21T02:53:23;2.50;;;1.20;;
3487;SDS011;38546;48.170;11.724;2023-11-21T02:56:13;6.13;;;1.93;;
3487;SDS011;38546;48.170;11.724;2023-11-21T02:59:02;5.70;;;1.70;;
3487;SDS011;38546;48.170;11.724;2023-11-21T03:01:52;5.20;;;1.73;;
3487;SDS011;38546;48.170;11.724;2023-11-21T03:04:41;3.10;;;2.10;;
3487;SDS011;38546;48.170;11.724;2023-11-21T03:07:31;4.60;;;2.33;;
3487;SDS011;38546;48.170;11.724;2023-11-21T03:10:20;5.57;;;2.00;;
3487;SDS011;38546;48.170;11.724;2023-11-21T03:13:09;6.40;;;1.90;;
3487;SDS011;38546;48.170;11.724;2023-11-21T03:16:00;2.80;;;2.10;;
3487;SDS011;38546;48.170;11.724;2023-11-21T03:18:49;1.67;;;1.57;;
3487;SDS011;38546;48.170;11.724;2023-11-21T03:21:39;3.53;;;2.07;;
3487;SDS011;38546;48.170;11.724;2023-11-21T03:24:28;1.60;;;1.50;;
3487;SDS011;38546;48.170;11.724;2023-11-21T03:27:18;3.77;;;1.53;;
3487;SDS011;38546;48.170;11.724;2023-11-21T03:30:08;17.40;;;2.40;;
3487;SDS011;38546;48.170;11.724;2023-11-21T03:32:59;7.53;;;2.30;;
3487;SDS011;38546;48.170;11.724;2023-11-21T03:35:49;3.23;;;1.97;;
3487;SDS011;38546;48.170;11.724;2023-11-21T03:38:38;1.93;;;1.83;;
3487;SDS011;38546;48.170;11.724;2023-11-21T03:41:28;6.47;;;2.20;;
3487;SDS011;38546;48.170;11.724;2023-11-21T03:44:17;3.37;;;2.03;;
3487;SDS011;38546;48.170;11.724;2023-11-21T03:47:06;6.20;;;2.77;;
3487;SDS011;38546;48.170;11.724;2023-11-21T03:49:56;5.13;;;2.43;;
3487;SDS011;38546;48.170;11.724;2023-11-21T03:52:45;3.20;;;1.80;;
3487;SDS011;38546;48.170;11.724;2023-11-21T03:55:34;2.23;;;1.60;;
3487;SDS011;38546;48.170;11.724;2023-11-21T03:58:23;1.40;;;1.30;;
3487;SDS011;38546;48.170;11.724;2023-11-21T04:01:15;3.27;;;2.00;;
3487;SDS011;38546;48.170;11.724;2023-11-21T04:04:11;1.67;;;1.67;;
3487;SDS011;38546;48.170;11.724;2023-11-21T04:07:00;6.70;;;2.17;;
3487;SDS011;38546;48.170;11.724;2023-11-21T04:09:50;4.23;;;1.60;;
3487;SDS011;38546;48.170;11.724;2023-11-21T04:12:40;2.17;;;2.07;;
3487;SDS011;38546;48.170;11.724;2023-11-21T04:15:29;5.33;;;2.70;;
3487;SDS011;38546;48.170;11.724;2023-11-21T04:18:19;6.10;;;2.93;;
3487;SDS011;38546;48.170;11.724;2023-11-21T04:21:08;6.57;;;2.57;;
3487;SDS011;38546;48.170;11.724;2023-11-21T04:23:57;11.27;;;3.50;;
3487;SDS011;38546;48.170;11.724;2023-11-21T04:26:46;4.50;;;2.50;;
3487;SDS011;38546;48.170;11.724;2023-11-21T04:29:35;7.00;;;3.10;;
3487;SDS011;38546;48.170;11.724;2023-11-21T04:32:25;4.17;;;2.10;;
3487;SDS011;38546;48.170;11.724;2023-11-21T04:35:14;5.67;;;2.00;;
3487;SDS011;38546;48.170;11.724;2023-11-21T04:38:03;7.60;;;2.30;;
3487;SDS011;38546;48.170;11.724;2023-11-21T04:40:53;3.33;;;1.90;;
3487;SDS011;38546;48.170;11.724;2023-11-21T04:43:42;6.07;;;1.90;;
3487;SDS011;38546;48.170;11.724;2023-11-21T04:46:31;2.07;;;1.97;;
3487;SDS011;38546;48.170;11.724;2023-11-21T04:49:21;1.80;;;1.50;;
3487;SDS011;38546;48.170;11.724;2023-11-21T04:52:10;9.80;;;1.50;;
3487;SDS011;38546;48.170;11.724;2023-11-21T04:54:59;1.90;;;1.60;;
3487;SDS011;38546;48.170;11.724;2023-11-21T04:57:50;9.80;;;2.33;;
3487;SDS011;38546;48.170;11.724;2023-11-21T05:00:39;1.60;;;1.60;;
3487;SDS011;38546;48.170;11.724;2023-11-21T05:03:29;3.20;;;1.80;;
3487;SDS011;38546;48.170;11.724;2023-11-21T05:06:18;2.53;;;1.70;;
3487;SDS011;38546;48.170;11.724;2023-11-21T05:09:08;5.33;;;1.63;;
3487;SDS011;38546;48.170;11.724;2023-11-21T05:12:00;6.43;;;1.67;;
3487;SDS011;38546;48.170;11.724;2023-11-21T05:14:50;7.03;;;1.63;;
3487;SDS011;38546;48.170;11.724;2023-11-21T05:17:40;6.33;;;1.63;;
3487;SDS011;38546;48.170;11.724;2023-11-21T05:20:32;6.27;;;1.93;;
3487;SDS011;38546;48.170;11.724;2023-11-21T05:23:21;2.20;;;1.33;;
3487;SDS011;38546;48.170;11.724;2023-11-21T05:26:10;1.40;;;1.40;;
3487;SDS011;38546;48.170;11.724;2023-11-21T05:28:59;3.70;;;1.83;;
3487;SDS011;38546;48.170;11.724;2023-11-21T05:31:49;5.33;;;1.30;;
3487;SDS011;38546;48.170;11.724;2023-11-21T05:34:38;1.90;;;1.60;;
3487;SDS011;38546;48.170;11.724;2023-11-21T05:37:27;2.23;;;1.50;;
3487;SDS011;38546;48.170;11.724;2023-11-21T05:40:17;3.73;;;2.13;;
3487;SDS011;38546;48.170;11.724;2023-11-21T05:43:07;6.63;;;1.70;;
3487;SDS011;38546;48.170;11.724;2023-11-21T05:45:56;2.07;;;1.70;;
3487;SDS011;38546;48.170;11.724;2023-11-21T05:48:46;3.83;;;1.27;;
3487;SDS011;38546;48.170;11.724;2023-11-21T05:51:36;1.30;;;1.30;;
3487;SDS011;38546;48.170;11.724;2023-11-21T05:54:27;3.70;;;1.50;;
3487;SDS011;38546;48.170;11.724;2023-11-21T05:57:17;2.07;;;1.13;;
3487;SDS011;38546;48.170;11.724;2023-11-21T06:00:15;3.07;;;1.50;;
3487;SDS011;38546;48.170;11.724;2023-11-21T06:03:10;3.43;;;1.50;;
3487;SDS011;38546;48.170;11.724;2023-11-21T06:06:00;2.10;;;1.63;;
3487;SDS011;38546;48.170;11.724;2023-11-21T06:08:50;1.50;;;1.40;;
3487;SDS011;38546;48.170;11.724;2023-11-21T06:11:39;2.13;;;1.10;;
3487;SDS011;38546;48.170;11.724;2023-11-21T06:14:28;3.53;;;1.70;;
3487;SDS011;38546;48.170;11.724;2023-11-21T06:17:17;2.17;;;1.40;;
3487;SDS011;38546;48.170;11.724;2023-11-21T06:20:06;5.10;;;1.93;;
3487;SDS011;38546;48.170;11.724;2023-11-21T06:22:57;1.90;;;1.30;;
3487;SDS011;38546;48.170;11.724;2023-11-21T06:25:46;1.53;;;1.43;;
3487;SDS011;38546;48.170;11.724;2023-11-21T06:28:35;3.30;;;1.20;;
3487;SDS011;38546;48.170;11.724;2023-11-21T06:31:25;2.73;;;1.17;;
3487;SDS011;38546;48.170;11.724;2023-11-21T06:34:14;1.90;;;1.23;;
3487;SDS011;38546;48.170;11.724;2023-11-21T06:37:03;5.00;;;1.63;;
3487;SDS011;38546;48.170;11.724;2023-11-21T06:39:53;1.47;;;1.37;;
3487;SDS011;38546;48.170;11.724;2023-11-21T06:42:42;2.80;;;1.10;;
3487;SDS011;38546;48.170;11.724;2023-11-21T06:45:33;2.80;;;1.23;;
3487;SDS011;38546;48.170;11.724;2023-11-21T06:48:25;4.10;;;1.70;;
3487;SDS011;38546;48.170;11.724;2023-11-21T06:51:14;1.60;;;1.50;;
3487;SDS011;38546;48.170;11.724;2023-11-21T06:54:03;1.67;;;1.10;;
3487;SDS011;38546;48.170;11.724;2023-11-21T06:56:54;2.80;;;1.43;;
3487;SDS011;38546;48.170;11.724;2023-11-21T06:59:45;1.90;;;1.30;;
3487;SDS011;38546;48.170;11.724;2023-11-21T07:02:33;1.30;;;1.17;;
3487;SDS011;38546;48.170;11.724;2023-11-21T07:05:23;2.73;;;1.60;;
3487;SDS011;38546;48.170;11.724;2023-11-21T07:08:12;1.70;;;1.60;;
3487;SDS011;38546;48.170;11.724;2023-11-21T07:11:01;1.50;;;1.33;;
3487;SDS011;38546;48.170;11.724;2023-11-21T07:13:51;1.23;;;1.13;;
3487;SDS011;38546;48.170;11.724;2023-11-21T07:16:40;4.77;;;1.57;;
3487;SDS011;38546;48.170;11.724;2023-11-21T07:19:29;1.60;;;1.50;;
3487;SDS011;38546;48.170;11.724;2023-11-21T07:22:19;3.17;;;1.10;;
3487;SDS011;38546;48.170;11.724;2023-11-21T07:25:10;1.33;;;1.23;;
3487;SDS011;38546;48.170;11.724;2023-11-21T07:27:59;1.00;;;0.90;;
3487;SDS011;38546;48.170;11.724;2023-11-21T07:30:49;2.87;;;1.87;;
3487;SDS011;38546;48.170;11.724;2023-11-21T07:33:38;1.30;;;1.30;;
3487;SDS011;38546;48.170;11.724;2023-11-21T07:36:27;1.10;;;1.07;;
3487;SDS011;38546;48.170;11.724;2023-11-21T07:39:16;3.03;;;1.10;;
3487;SDS011;38546;48.170;11.724;2023-11-21T07:42:04;1.00;;;1.00;;
3487;SDS011;38546;48.170;11.724;2023-11-21T07:44:53;1.13;;;0.87;;
3487;SDS011;38546;48.170;11.724;2023-11-21T07:47:42;1.03;;;0.93;;
3487;SDS011;38546;48.170;11.724;2023-11-21T07:50:32;1.90;;;1.10;;
3487;SDS011;38546;48.170;11.724;2023-11-21T07:53:22;0.80;;;0.80;;
3487;SDS011;38546;48.170;11.724;2023-11-21T07:56:10;1.10;;;0.90;;
3487;SDS011;38546;48.170;11.724;2023-11-21T07:58:59;1.57;;;0.90;;
3487;SDS011;38546;48.170;11.724;2023-11-21T08:01:48;0.90;;;0.90;;
3487;SDS011;38546;48.170;11.724;2023-11-21T08:04:38;2.30;;;1.00;;
3487;SDS011;38546;48.170;11.724;2023-11-21T08:07:27;1.07;;;0.93;;
3487;SDS011;38546;48.170;11.724;2023-11-21T08:10:16;1.23;;;1.13;;
3487;SDS011;38546;48.170;11.724;2023-11-21T08:13:06;0.97;;;0.97;;
3487;SDS011;38546;48.170;11.724;2023-11-21T08:15:58;0.80;;;0.80;;
3487;SDS011;38546;48.170;11.724;2023-11-21T08:18:52;1.00;;;1.00;;
3487;SDS011;38546;48.170;11.724;2023-11-21T08:21:41;1.53;;;1.00;;
3487;SDS011;38546;48.170;11.724;2023-11-21T08:24:30;0.87;;;0.87;;
3487;SDS011;38546;48.170;11.724;2023-11-21T08:27:19;4.33;;;1.50;;
3487;SDS011;38546;48.170;11.724;2023-11-21T08:30:09;2.50;;;1.70;;
3487;SDS011;38546;48.170;11.724;2023-11-21T08:32:59;5.93;;;1.23;;
3487;SDS011;38546;48.170;11.724;2023-11-21T08:35:48;1.07;;;1.07;;
3487;SDS011;38546;48.170;11.724;2023-11-21T08:38:38;2.43;;;1.43;;
3487;SDS011;38546;48.170;11.724;2023-11-21T08:41:27;1.50;;;1.30;;
3487;SDS011;38546;48.170;11.724;2023-11-21T08:44:17;1.90;;;1.00;;
3487;SDS011;38546;48.170;11.724;2023-11-21T08:47:07;2.30;;;1.20;;
3487;SDS011;38546;48.170;11.724;2023-11-21T08:49:56;1.13;;;1.10;;
3487;SDS011;38546;48.170;11.724;2023-11-21T08:52:47;1.50;;;1.10;;
3487;SDS011;38546;48.170;11.724;2023-11-21T08:55:36;0.93;;;0.93;;
3487;SDS011;38546;48.170;11.724;2023-11-21T08:58:25;2.07;;;1.03;;
3487;SDS011;38546;48.170;11.724;2023-11-21T09:01:15;2.80;;;1.30;;
3487;SDS011;38546;48.170;11.724;2023-11-21T09:04:04;1.13;;;1.10;;
3487;SDS011;38546;48.170;11.724;2023-11-21T09:06:54;0.80;;;0.80;;
3487;SDS011;38546;48.170;11.724;2023-11-21T09:09:43;1.37;;;1.20;;
3487;SDS011;38546;48.170;11.724;2023-11-21T09:12:32;4.57;;;1.40;;
3487;SDS011;38546;48.170;11.724;2023-11-21T09:15:23;1.60;;;1.50;;
3487;SDS011;38546;48.170;11.724;2023-11-21T09:18:14;1.43;;;0.87;;
3487;SDS011;38546;48.170;11.724;2023-11-21T09:21:04;2.30;;;1.00;;
3487;SDS011;38546;48.170;11.724;2023-11-21T09:23:54;2.87;;;1.30;;
3487;SDS011;38546;48.170;11.724;2023-11-21T09:26:43;1.90;;;1.53;;
3487;SDS011;38546;48.170;11.724;2023-11-21T09:29:34;1.47;;;1.37;;
3487;SDS011;38546;48.170;11.724;2023-11-21T09:32:25;1.10;;;1.10;;
3487;SDS011;38546;48.170;11.724;2023-11-21T09:35:14;1.60;;;1.50;;
3487;SDS011;38546;48.170;11.724;2023-11-21T09:38:03;1.93;;;1.17;;
3487;SDS011;38546;48.170;11.724;2023-11-21T09:40:58;2.00;;;1.80;;
3487;SDS011;38546;48.170;11.724;2023-11-21T09:43:49;3.77;;;2.50;;
3487;SDS011;38546;48.170;11.724;2023-11-21T09:46:47;2.50;;;1.73;;
3487;SDS011;38546;48.170;11.724;2023-11-21T09:49:38;1.60;;;1.50;;
3487;SDS011;38546;48.170;11.724;2023-11-21T09:52:28;6.00;;;1.80;;
3487;SDS011;38546;48.170;11.724;2023-11-21T09:55:19;1.83;;;1.20;;
3487;SDS011;38546;48.170;11.724;2023-11-21T09:58:10;1.57;;;1.47;;
3487;SDS011;38546;48.170;11.724;2023-11-21T10:01:02;2.00;;;1.37;;
3487;SDS011;38546;48.170;11.724;2023-11-21T10:03:56;1.50;;;1.40;;
3487;SDS011;38546;48.170;11.724;2023-11-21T10:06:45;1.70;;;1.60;;
3487;SDS011;38546;48.170;11.724;2023-11-21T10:09:37;1.80;;;1.53;;
3487;SDS011;38546;48.170;11.724;2023-11-21T10:12:27;2.30;;;2.20;;
3487;SDS011;38546;48.170;11.724;2023-11-21T10:15:18;1.70;;;1.60;;
3487;SDS011;38546;48.170;11.724;2023-11-21T10:18:11;2.93;;;2.00;;
3487;SDS011;38546;48.170;11.724;2023-11-21T10:21:03;1.87;;;1.73;;
3487;SDS011;38546;48.170;11.724;2023-11-21T10:23:53;5.10;;;2.20;;
3487;SDS011;38546;48.170;11.724;2023-11-21T10:26:44;2.00;;;1.80;;
3487;SDS011;38546;48.170;11.724;2023-11-21T10:29:34;1.57;;;1.57;;
3487;SDS011;38546;48.170;11.724;2023-11-21T10:32:27;2.57;;;2.37;;
3487;SDS011;38546;48.170;11.724;2023-11-21T10:35:21;2.93;;;1.30;;
3487;SDS011;38546;48.170;11.724;2023-11-21T10:38:10;2.93;;;1.50;;
3487;SDS011;38546;48.170;11.724;2023-11-21T10:41:00;1.67;;;1.57;;
3487;SDS011;38546;48.170;11.724;2023-11-21T10:43:49;1.20;;;1.10;;
3487;SDS011;38546;48.170;11.724;2023-11-21T10:46:44;1.60;;;1.60;;
3487;SDS011;38546;48.170;11.724;2023-11-21T10:49:33;2.30;;;1.20;;
3487;SDS011;38546;48.170;11.724;2023-11-21T10:52:24;1.33;;;1.23;;
3487;SDS011;38546;48.170;11.724;2023-11-21T10:55:19;4.37;;;1.37;;
3487;SDS011;38546;48.170;11.724;2023-11-21T10:58:10;1.50;;;1.10;;
3487;SDS011;38546;48.170;11.724;2023-11-21T11:01:02;3.23;;;1.70;;
3487;SDS011;38546;48.170;11.724;2023-11-21T11:03:55;2.87;;;1.30;;
3487;SDS011;38546;48.170;11.724;2023-11-21T11:06:48;1.50;;;1.40;;
3487;SDS011;38546;48.170;11.724;2023-11-21T11:09:52;1.57;;;1.27;;
3487;SDS011;38546;48.170;11.724;2023-11-21T11:12:43;4.00;;;1.70;;
3487;SDS011;38546;48.170;11.724;2023-11-21T11:15:35;3.37;;;1.53;;
3487;SDS011;38546;48.170;11.724;2023-11-21T11:18:24;1.73;;;1.60;;
3487;SDS011;38546;48.170;11.724;2023-11-21T11:28:13;5.23;;;1.50;;
3487;SDS011;38546;48.170;11.724;2023-11-21T11:31:19;2.07;;;1.90;;
3487;SDS011;38546;48.170;11.724;2023-11-21T11:34:51;1.80;;;1.70;;
3487;SDS011;38546;48.170;11.724;2023-11-21T11:37:51;1.60;;;1.50;;
3487;SDS011;38546;48.170;11.724;2023-11-21T11:40:41;1.33;;;1.23;;
3487;SDS011;38546;48.170;11.724;2023-11-21T11:43:35;2.03;;;1.40;;
3487;SDS011;38546;48.170;11.724;2023-11-21T11:46:40;6.27;;;1.37;;
3487;SDS011;38546;48.170;11.724;2023-11-21T11:49:36;1.60;;;1.50;;
3487;SDS011;38546;48.170;11.724;2023-11-21T11:52:31;1.60;;;1.50;;
3487;SDS011;38546;48.170;11.724;2023-11-21T11:55:41;2.00;;;1.50;;
3487;SDS011;38546;48.170;11.724;2023-11-21T11:58:37;1.40;;;1.07;;
3487;SDS011;38546;48.170;11.724;2023-11-21T12:01:27;2.10;;;1.40;;
3487;SDS011;38546;48.170;11.724;2023-11-21T12:07:20;0.97;;;0.97;;
3487;SDS011;38546;48.170;11.724;2023-11-21T12:10:14;1.20;;;0.97;;
3487;SDS011;38546;48.170;11.724;2023-11-21T12:13:07;3.17;;;1.23;;
3487;SDS011;38546;48.170;11.724;2023-11-21T12:16:03;1.90;;;1.30;;
3487;SDS011;38546;48.170;11.724;2023-11-21T12:18:54;1.90;;;0.90;;
3487;SDS011;38546;48.170;11.724;2023-11-21T12:21:43;1.53;;;1.53;;
3487;SDS011;38546;48.170;11.724;2023-11-21T12:24:33;1.97;;;1.20;;
3487;SDS011;38546;48.170;11.724;2023-11-21T12:27:22;2.50;;;1.30;;
3487;SDS011;38546;48.170;11.724;2023-11-21T12:30:12;1.17;;;1.07;;
3487;SDS011;38546;48.170;11.724;2023-11-21T12:33:02;1.13;;;1.13;;
3487;SDS011;38546;48.170;11.724;2023-11-21T12:35:52;1.07;;;1.07;;
3487;SDS011;38546;48.170;11.724;2023-11-21T12:38:42;2.43;;;1.43;;
3487;SDS011;38546;48.170;11.724;2023-11-21T12:41:31;2.40;;;1.73;;
3487;SDS011;38546;48.170;11.724;2023-11-21T12:44:21;1.80;;;1.20;;
3487;SDS011;38546;48.170;11.724;2023-11-21T12:47:15;2.03;;;1.10;;
3487;SDS011;38546;48.170;11.724;2023-11-21T12:50:06;1.43;;;1.20;;
3487;SDS011;38546;48.170;11.724;2023-11-21T12:53:06;0.70;;;0.70;;
3487;SDS011;38546;48.170;11.724;2023-11-21T12:55:58;1.90;;;1.00;;
3487;SDS011;38546;48.170;11.724;2023-11-21T12:58:47;1.57;;;1.07;;
3487;SDS011;38546;48.170;11.724;2023-11-21T13:01:36;1.23;;;1.13;;
3487;SDS011;38546;48.170;11.724;2023-11-21T13:04:30;10.97;;;1.43;;
3487;SDS011;38546;48.170;11.724;2023-11-21T13:07:23;3.93;;;1.00;;
3487;SDS011;38546;48.170;11.724;2023-11-21T13:10:13;1.53;;;1.53;;
3487;SDS011;38546;48.170;11.724;2023-11-21T13:13:03;1.37;;;1.27;;
3487;SDS011;38546;48.170;11.724;2023-11-21T13:16:02;2.77;;;1.10;;
3487;SDS011;38546;48.170;11.724;2023-11-21T13:18:53;2.57;;;1.33;;
3487;SDS011;38546;48.170;11.724;2023-11-21T13:21:42;0.90;;;0.83;;
3487;SDS011;38546;48.170;11.724;2023-11-21T13:24:32;0.90;;;0.90;;
3487;SDS011;38546;48.170;11.724;2023-11-21T13:27:21;0.80;;;0.80;;
3487;SDS011;38546;48.170;11.724;2023-11-21T13:30:14;1.80;;;0.90;;
3487;SDS011;38546;48.170;11.724;2023-11-21T13:33:06;6.20;;;1.97;;
3487;SDS011;38546;48.170;11.724;2023-11-21T13:35:56;0.80;;;0.80;;
3487;SDS011;38546;48.170;11.724;2023-11-21T13:38:46;0.70;;;0.70;;
3487;SDS011;38546;48.170;11.724;2023-11-21T13:41:36;2.37;;;1.87;;
3487;SDS011;38546;48.170;11.724;2023-11-21T13:44:26;1.57;;;1.03;;
3487;SDS011;38546;48.170;11.724;2023-11-21T13:47:23;2.00;;;1.10;;
3487;SDS011;38546;48.170;11.724;2023-11-21T13:50:18;1.70;;;0.90;;
3487;SDS011;38546;48.170;11.724;2023-11-21T13:53:12;0.77;;;0.77;;
3487;SDS011;38546;48.170;11.724;2023-11-21T13:56:11;1.10;;;1.00;;
3487;SDS011;38546;48.170;11.724;2023-11-21T13:59:02;1.27;;;1.27;;
3487;SDS011;38546;48.170;11.724;2023-11-21T14:02:03;2.10;;;1.90;;
3487;SDS011;38546;48.170;11.724;2023-11-21T14:05:08;1.60;;;1.50;;
3487;SDS011;38546;48.170;11.724;2023-11-21T14:07:58;1.43;;;1.20;;
3487;SDS011;38546;48.170;11.724;2023-11-21T14:10:53;1.10;;;1.10;;
3487;SDS011;38546;48.170;11.724;2023-11-21T14:13:48;1.37;;;1.23;;
3487;SDS011;38546;48.170;11.724;2023-11-21T14:16:38;2.00;;;1.00;;
3487;SDS011;38546;48.170;11.724;2023-11-21T14:19:27;1.80;;;1.10;;
3487;SDS011;38546;48.170;11.724;2023-11-21T14:22:21;2.00;;;1.30;;
3487;SDS011;38546;48.170;11.724;2023-11-21T14:25:10;1.73;;;0.87;;
3487;SDS011;38546;48.170;11.724;2023-11-21T14:28:01;1.00;;;1.00;;
3487;SDS011;38546;48.170;11.724;2023-11-21T14:30:52;1.20;;;1.20;;
3487;SDS011;38546;48.170;11.724;2023-11-21T14:33:42;1.37;;;0.93;;
3487;SDS011;38546;48.170;11.724;2023-11-21T14:36:33;1.00;;;1.00;;
3487;SDS011;38546;48.170;11.724;2023-11-21T14:39:23;1.20;;;1.20;;
3487;SDS011;38546;48.170;11.724;2023-11-21T14:42:15;2.20;;;1.57;;
3487;SDS011;38546;48.170;11.724;2023-11-21T14:45:10;3.73;;;1.20;;
3487;SDS011;38546;48.170;11.724;2023-11-21T14:48:01;0.80;;;0.80;;
3487;SDS011;38546;48.170;11.724;2023-11-21T14:50:53;0.97;;;0.97;;
3487;SDS011;38546;48.170;11.724;2023-11-21T14:53:52;4.13;;;1.93;;
3487;SDS011;38546;48.170;11.724;2023-11-21T14:56:48;2.67;;;2.47;;
3487;SDS011;38546;48.170;11.724;2023-11-21T14:59:43;4.67;;;2.60;;
3487;SDS011;38546;48.170;11.724;2023-11-21T15:02:46;11.27;;;5.40;;
3487;SDS011;38546;48.170;11.724;2023-11-21T15:05:38;6.53;;;5.90;;
3487;SDS011;38546;48.170;11.724;2023-11-21T15:08:28;9.10;;;6.67;;
3487;SDS011;38546;48.170;11.724;2023-11-21T15:11:20;12.27;;;7.50;;
3487;SDS011;38546;48.170;11.724;2023-11-21T15:14:13;11.77;;;6.63;;
3487;SDS011;38546;48.170;11.724;2023-11-21T15:17:09;9.93;;;6.60;;
3487;SDS011;38546;48.170;11.724;2023-11-21T15:19:58;9.80;;;6.33;;
3487;SDS011;38546;48.170;11.724;2023-11-21T15:22:48;4.70;;;3.80;;
3487;SDS011;38546;48.170;11.724;2023-11-21T15:25:37;2.70;;;2.50;;
3487;SDS011;38546;48.170;11.724;2023-11-21T15:28:26;2.50;;;1.83;;
3487;SDS011;38546;48.170;11.724;2023-11-21T15:31:17;2.17;;;1.97;;
3487;SDS011;38546;48.170;11.724;2023-11-21T15:34:10;1.60;;;1.50;;
3487;SDS011;38546;48.170;11.724;2023-11-21T15:37:00;2.53;;;2.30;;
3487;SDS011;38546;48.170;11.724;2023-11-21T15:39:50;3.47;;;2.10;;
3487;SDS011;38546;48.170;11.724;2023-11-21T15:42:38;2.20;;;2.00;;
3487;SDS011;38546;48.170;11.724;2023-11-21T15:45:27;3.07;;;2.10;;
3487;SDS011;38546;48.170;11.724;2023-11-21T15:48:16;2.73;;;1.87;;
3487;SDS011;38546;48.170;11.724;2023-11-21T15:51:06;2.20;;;2.10;;
3487;SDS011;38546;48.170;11.724;2023-11-21T15:53:58;2.23;;;2.13;;
3487;SDS011;38546;48.170;11.724;2023-11-21T15:56:48;2.80;;;2.60;;
3487;SDS011;38546;48.170;11.724;2023-11-21T15:59:39;2.30;;;2.20;;
3487;SDS011;38546;48.170;11.724;2023-11-21T16:02:30;4.10;;;2.80;;
3487;SDS011;38546;48.170;11.724;2023-11-21T16:05:20;2.90;;;2.70;;
3487;SDS011;38546;48.170;11.724;2023-11-21T16:08:09;4.00;;;3.53;;
3487;SDS011;38546;48.170;11.724;2023-11-21T16:10:57;4.53;;;3.23;;
3487;SDS011;38546;48.170;11.724;2023-11-21T16:13:48;4.67;;;4.27;;
3487;SDS011;38546;48.170;11.724;2023-11-21T16:16:37;5.87;;;4.40;;
3487;SDS011;38546;48.170;11.724;2023-11-21T16:19:26;5.63;;;4.37;;
3487;SDS011;38546;48.170;11.724;2023-11-21T16:22:15;3.70;;;3.40;;
3487;SDS011;38546;48.170;11.724;2023-11-21T16:25:05;4.40;;;4.00;;
3487;SDS011;38546;48.170;11.724;2023-11-21T16:27:59;5.50;;;4.90;;
3487;SDS011;38546;48.170;11.724;2023-11-21T16:30:52;5.43;;;4.80;;
3487;SDS011;38546;48.170;11.724;2023-11-21T16:33:41;12.00;;;7.97;;
3487;SDS011;38546;48.170;11.724;2023-11-21T16:36:30;7.40;;;6.00;;
3487;SDS011;38546;48.170;11.724;2023-11-21T16:39:19;5.20;;;4.80;;
3487;SDS011;38546;48.170;11.724;2023-11-21T16:42:09;4.87;;;3.43;;
3487;SDS011;38546;48.170;11.724;2023-11-21T16:44:59;5.30;;;4.10;;
3487;SDS011;38546;48.170;11.724;2023-11-21T16:47:48;7.10;;;4.43;;
3487;SDS011;38546;48.170;11.724;2023-11-21T16:50:38;4.93;;;4.00;;
3487;SDS011;38546;48.170;11.724;2023-11-21T16:53:33;5.60;;;4.80;;
3487;SDS011;38546;48.170;11.724;2023-11-21T16:56:23;6.20;;;5.10;;
3487;SDS011;38546;48.170;11.724;2023-11-21T16:59:13;6.80;;;4.53;;
3487;SDS011;38546;48.170;11.724;2023-11-21T17:02:02;6.90;;;5.13;;
3487;SDS011;38546;48.170;11.724;2023-11-21T17:04:52;5.67;;;4.50;;
3487;SDS011;38546;48.170;11.724;2023-11-21T17:07:41;5.43;;;4.20;;
3487;SDS011;38546;48.170;11.724;2023-11-21T17:10:30;7.03;;;4.70;;
3487;SDS011;38546;48.170;11.724;2023-11-21T17:13:19;4.83;;;4.27;;
3487;SDS011;38546;48.170;11.724;2023-11-21T17:16:08;4.50;;;4.10;;
3487;SDS011;38546;48.170;11.724;2023-11-21T17:18:56;4.47;;;4.03;;